createdAt,value
2022-12-03T00:02:08.998Z,39.20
2022-12-03T00:04:39.619Z,40.60
2022-12-03T00:07:10.130Z,39.20
2022-12-03T00:09:40.670Z,34.40
2022-12-03T00:12:11.097Z,36.60
2022-12-03T00:14:44.883Z,35.70
2022-12-03T00:17:15.577Z,35.20
2022-12-03T00:19:46.285Z,33.20
2022-12-03T00:22:16.815Z,34.40
2022-12-03T00:24:46.928Z,34.30
2022-12-03T00:27:19.051Z,41.40
2022-12-03T00:29:49.091Z,40.20
2022-12-03T00:32:19.282Z,37.90
2022-12-03T00:34:49.284Z,33.70
2022-12-03T00:37:18.179Z,37.70
2022-12-03T00:39:51.144Z,37.40
2022-12-03T00:42:21.252Z,44.30
2022-12-03T00:44:51.602Z,37.20
2022-12-03T00:47:21.997Z,39.60
2022-12-03T00:49:52.316Z,38.90
2022-12-03T00:52:22.486Z,39.90
2022-12-03T00:54:51.754Z,36.60
2022-12-03T00:57:23.428Z,38.10
2022-12-03T00:59:53.429Z,37.20
2022-12-03T01:02:23.712Z,52.60
2022-12-03T01:04:53.329Z,51.10
2022-12-03T01:07:23.848Z,49.20
2022-12-03T01:09:54.183Z,45.10
2022-12-03T01:12:24.657Z,37.90
2022-12-03T01:14:55.353Z,43.50
2022-12-03T01:17:26.020Z,46.50
2022-12-03T01:19:55.376Z,43.70
2022-12-03T01:22:26.215Z,46.30
2022-12-03T01:24:56.540Z,43.80
2022-12-03T01:27:26.837Z,48.90
2022-12-03T01:29:57.535Z,55.70
2022-12-03T01:32:28.081Z,55.40
2022-12-03T01:34:58.450Z,52.70
2022-12-03T01:37:28.589Z,50.90
2022-12-03T01:39:58.695Z,52.30
2022-12-03T01:42:32.951Z,40.30
2022-12-03T01:45:03.557Z,49.70
2022-12-03T01:47:36.723Z,47.00
2022-12-03T01:50:21.248Z,43.50
2022-12-03T01:52:55.933Z,43.40
2022-12-03T01:55:26.712Z,42.80
2022-12-03T01:57:59.826Z,47.70
2022-12-03T02:00:30.655Z,51.70
2022-12-03T02:03:08.383Z,51.40
2022-12-03T02:05:39.132Z,52.40
2022-12-03T02:08:31.900Z,56.70
2022-12-03T02:11:28.836Z,51.40
2022-12-03T02:14:07.690Z,48.20
2022-12-03T02:16:40.157Z,46.90
2022-12-03T02:19:35.077Z,47.80
2022-12-03T02:22:17.234Z,44.60
2022-12-03T02:25:11.570Z,37.30
2022-12-03T02:27:42.349Z,36.80
2022-12-03T02:30:14.897Z,40.20
2022-12-03T02:32:45.747Z,43.10
2022-12-03T02:35:25.057Z,41.00
2022-12-03T02:38:12.696Z,41.20
2022-12-03T02:40:46.374Z,36.90
2022-12-03T02:43:18.268Z,40.90
2022-12-03T02:45:53.937Z,37.80
2022-12-03T02:48:38.782Z,38.60
2022-12-03T02:51:11.692Z,40.50
2022-12-03T02:53:45.675Z,41.20
2022-12-03T02:56:23.815Z,42.40
2022-12-03T02:58:57.922Z,37.60
2022-12-03T03:01:30.054Z,35.20
2022-12-03T03:04:01.205Z,37.00
2022-12-03T03:06:31.851Z,32.10
2022-12-03T03:09:03.044Z,32.30
2022-12-03T03:11:33.867Z,31.40
2022-12-03T03:14:04.635Z,31.80
2022-12-03T03:16:37.532Z,34.60
2022-12-03T03:19:08.544Z,29.60
2022-12-03T03:21:39.111Z,27.30
2022-12-03T03:24:09.659Z,26.30
2022-12-03T03:26:40.350Z,26.70
2022-12-03T03:29:10.879Z,27.60
2022-12-03T03:31:43.670Z,28.40
2022-12-03T03:34:15.069Z,28.70
2022-12-03T03:36:46.601Z,35.90
2022-12-03T03:39:17.286Z,32.40
2022-12-03T03:41:47.793Z,32.10
2022-12-03T03:44:17.796Z,31.30
2022-12-03T03:46:49.276Z,34.80
2022-12-03T03:49:20.092Z,33.60
2022-12-03T03:51:50.428Z,28.10
2022-12-03T03:54:20.696Z,26.00
2022-12-03T03:56:50.614Z,28.80
2022-12-03T03:59:20.964Z,32.60
2022-12-03T04:01:51.086Z,31.40
2022-12-03T04:04:24.580Z,30.50
2022-12-03T04:06:54.950Z,27.70
2022-12-03T04:09:24.019Z,31.20
2022-12-03T04:12:16.181Z,30.60
2022-12-03T04:14:46.486Z,28.70
2022-12-03T04:17:21.051Z,31.70
2022-12-03T04:19:52.041Z,28.50
2022-12-03T04:22:41.205Z,34.60
2022-12-03T04:25:32.540Z,37.10
2022-12-03T04:28:23.331Z,37.80
2022-12-03T04:30:53.697Z,34.10
2022-12-03T04:33:43.854Z,30.20
2022-12-03T04:36:14.309Z,31.70
2022-12-03T04:38:45.915Z,33.50
2022-12-03T04:41:15.806Z,33.20
2022-12-03T04:44:06.243Z,32.80
2022-12-03T04:46:37.214Z,30.60
2022-12-03T04:49:07.790Z,36.40
2022-12-03T04:51:38.947Z,33.10
2022-12-03T04:54:10.876Z,33.00
2022-12-03T04:56:43.284Z,30.50
2022-12-03T04:59:16.604Z,34.30
2022-12-03T05:01:48.392Z,38.10
2022-12-03T05:04:21.217Z,33.90
2022-12-03T05:06:54.655Z,33.40
2022-12-03T05:09:25.086Z,35.90
2022-12-03T05:11:55.396Z,36.50
2022-12-03T05:14:25.650Z,44.80
2022-12-03T05:16:57.969Z,43.50
2022-12-03T05:19:49.709Z,50.40
2022-12-03T05:22:20.360Z,39.20
2022-12-03T05:24:51.338Z,46.60
2022-12-03T05:27:24.861Z,50.50
2022-12-03T05:29:59.611Z,51.20
2022-12-03T05:32:30.152Z,43.10
2022-12-03T05:35:02.675Z,54.40
2022-12-03T05:37:32.675Z,51.10
2022-12-03T05:40:04.256Z,42.30
2022-12-03T05:42:54.221Z,46.90
2022-12-03T05:45:29.439Z,44.20
2022-12-03T05:48:01.294Z,61.20
2022-12-03T05:50:33.397Z,82.60
2022-12-03T05:53:18.212Z,73.70
2022-12-03T05:55:48.758Z,68.90
2022-12-03T05:58:18.622Z,80.40
2022-12-03T06:00:49.078Z,78.60
2022-12-03T06:03:19.905Z,74.40
2022-12-03T06:05:51.087Z,70.00
2022-12-03T06:08:21.357Z,65.50
2022-12-03T06:10:51.876Z,59.50
2022-12-03T06:13:20.968Z,57.40
2022-12-03T06:15:51.349Z,59.30
2022-12-03T06:18:21.955Z,60.90
2022-12-03T06:20:52.112Z,65.50
2022-12-03T06:23:22.313Z,69.10
2022-12-03T06:25:52.693Z,79.50
2022-12-03T06:28:22.718Z,84.30
2022-12-03T06:30:52.876Z,98.90
2022-12-03T06:33:22.931Z,93.70
2022-12-03T06:35:53.125Z,100.70
2022-12-03T06:38:23.372Z,103.40
2022-12-03T06:40:53.461Z,92.50
2022-12-03T06:43:23.713Z,81.70
2022-12-03T06:45:53.372Z,84.30
2022-12-03T06:48:23.442Z,99.60
2022-12-03T06:50:53.434Z,110.80
2022-12-03T06:53:23.626Z,116.00
2022-12-03T06:55:52.604Z,104.00
2022-12-03T06:58:22.510Z,114.70
2022-12-03T07:00:52.772Z,134.80
2022-12-03T07:03:22.934Z,103.80
2022-12-03T07:05:55.205Z,107.50
2022-12-03T07:08:25.198Z,143.30
2022-12-03T07:10:54.464Z,110.80
2022-12-03T07:13:25.781Z,88.10
2022-12-03T07:15:55.966Z,93.10
2022-12-03T07:18:26.014Z,86.10
2022-12-03T07:20:56.064Z,76.80
2022-12-03T07:23:26.145Z,81.00
2022-12-03T07:25:56.292Z,85.40
2022-12-03T07:28:26.652Z,73.60
2022-12-03T07:30:57.272Z,91.90
2022-12-03T07:33:27.412Z,78.40
2022-12-03T07:35:57.568Z,81.80
2022-12-03T07:38:27.302Z,81.10
2022-12-03T07:40:57.389Z,69.40
2022-12-03T07:43:27.496Z,60.90
2022-12-03T07:45:57.534Z,89.20
2022-12-03T07:48:29.526Z,65.30
2022-12-03T07:50:59.708Z,54.10
2022-12-03T07:53:29.498Z,49.10
2022-12-03T07:55:59.580Z,51.20
2022-12-03T07:58:29.818Z,43.70
2022-12-03T08:01:00.089Z,55.20
2022-12-03T08:03:30.148Z,69.20
2022-12-03T08:06:00.264Z,45.40
2022-12-03T08:08:29.322Z,40.80
2022-12-03T08:10:59.057Z,52.60
2022-12-03T08:13:34.272Z,39.70
2022-12-03T08:16:18.268Z,39.90
2022-12-03T08:18:50.823Z,33.60
2022-12-03T08:21:22.534Z,47.70
2022-12-03T08:23:52.684Z,42.70
2022-12-03T08:26:28.622Z,45.50
2022-12-03T08:29:00.161Z,50.50
2022-12-03T08:31:33.625Z,46.40
2022-12-03T08:34:24.879Z,56.90
2022-12-03T08:37:02.024Z,40.50
2022-12-03T08:39:34.131Z,45.60
2022-12-03T08:42:29.810Z,51.30
2022-12-03T08:45:20.628Z,35.60
2022-12-03T08:47:50.564Z,36.10
2022-12-03T08:50:32.044Z,36.50
2022-12-03T08:53:37.347Z,33.70
2022-12-03T08:56:26.668Z,33.80
2022-12-03T08:59:03.389Z,32.60
2022-12-03T09:01:46.450Z,33.90
2022-12-03T09:04:20.671Z,28.40
2022-12-03T09:06:54.058Z,29.30
2022-12-03T09:09:25.926Z,29.50
2022-12-03T09:11:56.363Z,30.50
2022-12-03T09:14:26.821Z,28.90
2022-12-03T09:16:57.657Z,27.20
2022-12-03T09:19:33.295Z,28.30
2022-12-03T09:22:03.522Z,26.90
2022-12-03T09:24:33.652Z,25.60
2022-12-03T09:27:03.787Z,24.10
2022-12-03T09:29:34.001Z,24.70
2022-12-03T09:32:03.224Z,24.00
2022-12-03T09:34:35.137Z,23.80
2022-12-03T09:37:05.260Z,24.10
2022-12-03T09:39:35.483Z,23.00
2022-12-03T09:42:04.578Z,23.40
2022-12-03T09:44:36.597Z,23.10
2022-12-03T09:47:08.103Z,24.80
2022-12-03T09:49:40.987Z,23.70
2022-12-03T09:52:17.645Z,25.00
2022-12-03T09:54:48.101Z,26.30
2022-12-03T09:57:19.321Z,31.70
2022-12-03T09:59:49.474Z,34.80
2022-12-03T10:02:29.884Z,37.10
2022-12-03T10:05:01.171Z,38.00
2022-12-03T10:07:30.248Z,38.80
2022-12-03T10:10:03.462Z,37.90
2022-12-03T10:12:33.641Z,42.30
2022-12-03T10:15:04.038Z,48.90
2022-12-03T10:17:33.051Z,51.50
2022-12-03T10:20:02.686Z,55.20
2022-12-03T10:22:37.977Z,56.40
2022-12-03T10:25:12.958Z,59.90
2022-12-03T10:27:43.704Z,57.70
2022-12-03T10:30:23.881Z,68.40
2022-12-03T10:32:53.109Z,71.30
2022-12-03T10:35:26.584Z,69.10
2022-12-03T10:38:05.334Z,76.50
2022-12-03T10:40:40.208Z,71.70
2022-12-03T10:43:17.062Z,71.30
2022-12-03T10:45:52.085Z,71.20
2022-12-03T10:48:26.887Z,64.50
2022-12-03T10:51:08.278Z,63.60
2022-12-03T10:53:40.333Z,66.20
2022-12-03T10:56:18.243Z,60.20
2022-12-03T10:58:49.167Z,60.40
2022-12-03T11:01:25.825Z,59.70
2022-12-03T11:04:02.715Z,58.00
2022-12-03T11:06:33.517Z,60.50
2022-12-03T11:09:09.020Z,54.60
2022-12-03T11:11:40.137Z,56.60
2022-12-03T11:14:18.159Z,54.80
2022-12-03T11:17:07.609Z,52.70
2022-12-03T11:19:36.670Z,53.70
2022-12-03T11:22:12.392Z,58.60
2022-12-03T11:25:08.658Z,53.70
2022-12-03T11:27:38.845Z,52.10
2022-12-03T11:30:11.504Z,51.60
2022-12-03T11:32:44.565Z,48.80
2022-12-03T11:35:28.295Z,49.30
2022-12-03T11:38:38.695Z,49.20
2022-12-03T11:41:12.449Z,51.70
2022-12-03T11:43:57.181Z,50.50
2022-12-03T11:46:39.071Z,50.70
2022-12-03T11:49:38.639Z,50.00
2022-12-03T11:52:24.594Z,53.60
2022-12-03T11:55:05.516Z,54.20
2022-12-03T11:57:40.226Z,54.30
2022-12-03T12:00:22.238Z,54.00
2022-12-03T12:02:54.998Z,55.50
2022-12-03T12:05:30.859Z,48.50
2022-12-03T12:08:02.903Z,46.60
2022-12-03T12:10:48.246Z,49.70
2022-12-03T12:13:28.887Z,49.60
2022-12-03T12:16:08.954Z,50.00
2022-12-03T12:18:43.569Z,49.50
2022-12-03T12:21:42.449Z,50.20
2022-12-03T12:24:31.722Z,49.30
2022-12-03T12:27:10.563Z,52.10
2022-12-03T12:29:42.426Z,46.30
2022-12-03T12:32:17.975Z,43.60
2022-12-03T12:34:58.179Z,49.00
2022-12-03T12:37:38.722Z,46.70
2022-12-03T12:40:16.205Z,50.90
2022-12-03T12:42:54.748Z,50.30
2022-12-03T12:45:30.029Z,44.80
2022-12-03T12:48:25.934Z,46.00
2022-12-03T12:51:10.746Z,46.80
2022-12-03T12:53:45.236Z,49.90
2022-12-03T12:56:26.621Z,45.70
2022-12-03T12:59:01.677Z,43.70
2022-12-03T13:01:36.627Z,45.00
2022-12-03T13:04:15.256Z,45.20
2022-12-03T13:06:47.462Z,45.20
2022-12-03T13:09:23.345Z,42.30
2022-12-03T13:11:57.516Z,45.90
2022-12-03T13:14:32.507Z,42.10
2022-12-03T13:17:15.847Z,43.50
2022-12-03T13:19:49.434Z,43.80
2022-12-03T13:22:26.116Z,46.00
2022-12-03T13:24:58.962Z,50.00
2022-12-03T13:27:31.089Z,47.10
2022-12-03T13:30:17.171Z,48.70
2022-12-03T13:32:47.386Z,50.50
2022-12-03T13:35:32.372Z,48.10
2022-12-03T13:38:03.126Z,54.40
2022-12-03T13:40:35.808Z,50.40
2022-12-03T13:43:17.071Z,48.80
2022-12-03T13:45:54.670Z,48.70
2022-12-03T13:48:32.442Z,47.70
2022-12-03T13:51:24.294Z,48.00
2022-12-03T13:53:55.873Z,47.10
2022-12-03T13:56:36.754Z,46.30
2022-12-03T13:59:06.433Z,43.90
2022-12-03T14:01:36.770Z,83.30
2022-12-03T14:04:07.265Z,46.20
2022-12-03T14:06:37.414Z,45.30
2022-12-03T14:09:08.341Z,44.60
2022-12-03T14:11:57.922Z,43.60
2022-12-03T14:14:28.341Z,42.60
2022-12-03T14:17:00.240Z,46.80
2022-12-03T14:19:29.261Z,45.70
2022-12-03T14:22:00.694Z,45.00
2022-12-03T14:24:31.012Z,45.60
2022-12-03T14:27:01.468Z,44.70
2022-12-03T14:29:31.484Z,47.60
2022-12-03T14:32:01.345Z,45.80
2022-12-03T14:34:32.666Z,44.90
2022-12-03T14:37:02.999Z,45.50
2022-12-03T14:39:33.310Z,45.60
2022-12-03T14:42:17.152Z,45.60
2022-12-03T14:44:52.825Z,44.20
2022-12-03T14:47:23.686Z,45.80
2022-12-03T14:49:54.046Z,42.50
2022-12-03T14:52:24.632Z,44.90
2022-12-03T14:54:55.066Z,45.50
2022-12-03T14:57:24.809Z,48.70
2022-12-03T14:59:55.145Z,51.00
2022-12-03T15:02:25.783Z,50.60
2022-12-03T15:04:56.315Z,47.20
2022-12-03T15:07:26.336Z,49.20
2022-12-03T15:09:55.378Z,51.10
2022-12-03T15:12:26.711Z,51.50
2022-12-03T15:14:56.609Z,51.90
2022-12-03T15:17:31.737Z,51.30
2022-12-03T15:20:01.493Z,51.40
2022-12-03T15:22:32.582Z,55.50
2022-12-03T15:25:03.831Z,57.20
2022-12-03T15:27:33.696Z,49.50
2022-12-03T15:30:02.644Z,55.50
2022-12-03T15:32:34.876Z,50.20
2022-12-03T15:35:05.455Z,49.20
2022-12-03T15:37:35.733Z,51.20
2022-12-03T15:40:06.476Z,54.20
2022-12-03T15:42:36.907Z,50.60
2022-12-03T15:45:14.834Z,52.80
2022-12-03T15:47:51.135Z,49.40
2022-12-03T15:50:21.154Z,51.20
2022-12-03T15:52:51.332Z,53.70
2022-12-03T15:55:21.708Z,55.40
2022-12-03T15:57:52.407Z,54.30
2022-12-03T16:00:25.131Z,50.70
2022-12-03T16:02:55.738Z,49.10
2022-12-03T16:05:25.586Z,52.40
2022-12-03T16:07:55.978Z,49.30
2022-12-03T16:10:25.980Z,58.90
2022-12-03T16:12:56.611Z,55.00
2022-12-03T16:15:27.397Z,54.00
2022-12-03T16:17:57.820Z,52.30
2022-12-03T16:20:30.270Z,50.60
2022-12-03T16:23:00.395Z,51.60
2022-12-03T16:25:30.714Z,53.70
2022-12-03T16:28:01.109Z,55.80
2022-12-03T16:30:31.209Z,56.00
2022-12-03T16:33:01.521Z,55.10
2022-12-03T16:35:31.827Z,54.00
2022-12-03T16:38:02.366Z,50.80
2022-12-03T16:40:32.614Z,52.60
2022-12-03T16:43:04.808Z,52.50
2022-12-03T16:45:41.672Z,49.30
2022-12-03T16:48:11.951Z,55.40
2022-12-03T16:50:46.167Z,56.80
2022-12-03T16:53:16.636Z,54.40
2022-12-03T16:55:46.812Z,54.80
2022-12-03T16:58:19.229Z,55.50
2022-12-03T17:00:51.076Z,52.90
2022-12-03T17:03:21.610Z,56.00
2022-12-03T17:05:51.899Z,57.00
2022-12-03T17:08:21.969Z,52.60
2022-12-03T17:10:52.076Z,52.70
2022-12-03T17:13:23.593Z,54.40
2022-12-03T17:15:53.703Z,57.10
2022-12-03T17:18:24.500Z,51.10
2022-12-03T17:20:54.426Z,52.50
2022-12-03T17:23:26.500Z,50.40
2022-12-03T17:25:56.036Z,47.70
2022-12-03T17:28:26.018Z,45.70
2022-12-03T17:30:54.848Z,48.20
2022-12-03T17:33:24.977Z,47.10
2022-12-03T17:35:55.126Z,46.90
2022-12-03T17:38:25.312Z,53.10
2022-12-03T17:40:55.194Z,51.90
2022-12-03T17:43:25.296Z,53.70
2022-12-03T17:45:57.177Z,48.70
2022-12-03T17:48:31.615Z,53.80
2022-12-03T17:51:02.528Z,50.20
2022-12-03T17:53:32.547Z,53.00
2022-12-03T17:56:04.651Z,56.50
2022-12-03T17:58:35.129Z,54.00
2022-12-03T18:01:09.065Z,56.00
2022-12-03T18:03:39.104Z,58.70
2022-12-03T18:06:09.643Z,59.30
2022-12-03T18:08:39.974Z,52.90
2022-12-03T18:11:10.094Z,56.30
2022-12-03T18:13:40.103Z,60.30
2022-12-03T18:16:10.574Z,59.10
2022-12-03T18:18:41.097Z,50.50
2022-12-03T18:21:12.062Z,56.50
2022-12-03T18:23:42.371Z,48.20
2022-12-03T18:26:13.026Z,48.00
2022-12-03T18:28:43.854Z,49.70
2022-12-03T18:31:19.344Z,48.30
2022-12-03T18:33:50.143Z,46.90
2022-12-03T18:36:25.749Z,50.10
2022-12-03T18:38:56.294Z,46.60
2022-12-03T18:41:26.722Z,52.20
2022-12-03T18:43:57.057Z,45.60
2022-12-03T18:46:52.257Z,46.80
2022-12-03T18:49:20.230Z,46.70
2022-12-03T18:51:52.135Z,46.00
2022-12-03T18:54:26.440Z,48.80
2022-12-03T18:56:56.508Z,58.70
2022-12-03T18:59:26.594Z,76.80
2022-12-03T19:01:55.498Z,73.80
2022-12-03T19:04:25.620Z,63.10
2022-12-03T19:06:55.672Z,62.80
2022-12-03T19:09:25.996Z,55.90
2022-12-03T19:11:56.208Z,50.10
2022-12-03T19:14:26.375Z,50.80
2022-12-03T19:16:56.580Z,49.80
2022-12-03T19:19:27.736Z,48.80
2022-12-03T19:21:59.759Z,53.50
2022-12-03T19:24:31.154Z,48.80
2022-12-03T19:27:00.827Z,50.80
2022-12-03T19:29:30.764Z,50.70
2022-12-03T19:32:00.832Z,52.40
2022-12-03T19:34:30.811Z,51.50
2022-12-03T19:37:00.887Z,51.30
2022-12-03T19:39:31.029Z,49.90
2022-12-03T19:42:01.241Z,48.60
2022-12-03T19:44:31.476Z,49.40
2022-12-03T19:47:03.781Z,58.20
2022-12-03T19:49:33.923Z,44.80
2022-12-03T19:52:03.571Z,51.90
2022-12-03T19:54:33.464Z,44.70
2022-12-03T19:57:03.667Z,41.50
2022-12-03T19:59:33.683Z,45.50
2022-12-03T20:02:03.794Z,44.30
2022-12-03T20:04:33.472Z,45.40
2022-12-03T20:07:05.908Z,44.60
2022-12-03T20:09:35.767Z,46.20
2022-12-03T20:12:05.801Z,47.00
2022-12-03T20:14:34.714Z,48.20
2022-12-03T20:17:05.547Z,46.50
2022-12-03T20:19:35.307Z,46.70
2022-12-03T20:22:07.358Z,53.10
2022-12-03T20:24:40.350Z,60.00
2022-12-03T20:27:10.650Z,58.30
2022-12-03T20:29:41.011Z,53.40
2022-12-03T20:32:11.403Z,67.60
2022-12-03T20:34:41.341Z,54.50
2022-12-03T20:37:11.651Z,54.40
2022-12-03T20:39:42.101Z,58.50
2022-12-03T20:42:12.331Z,54.30
2022-12-03T20:44:42.464Z,57.30
2022-12-03T20:47:12.755Z,50.50
2022-12-03T20:49:43.250Z,49.60
2022-12-03T20:52:13.837Z,58.20
2022-12-03T20:54:43.923Z,57.90
2022-12-03T20:57:12.738Z,88.20
2022-12-03T20:59:43.036Z,48.50
2022-12-03T21:02:13.401Z,48.00
2022-12-03T21:04:43.862Z,49.10
2022-12-03T21:07:14.117Z,50.70
2022-12-03T21:09:44.484Z,45.60
2022-12-03T21:12:14.661Z,50.30
2022-12-03T21:14:43.637Z,41.60
2022-12-03T21:17:13.698Z,47.20
2022-12-03T21:19:43.672Z,75.90
2022-12-03T21:22:13.922Z,67.40
2022-12-03T21:24:44.496Z,66.00
2022-12-03T21:27:19.870Z,41.80
2022-12-03T21:29:50.723Z,41.70
2022-12-03T21:32:21.074Z,32.30
2022-12-03T21:34:51.485Z,45.20
2022-12-03T21:37:21.500Z,55.60
2022-12-03T21:39:51.835Z,68.90
2022-12-03T21:42:35.743Z,51.30
2022-12-03T21:45:09.911Z,51.50
2022-12-03T21:47:42.921Z,37.90
2022-12-03T21:50:13.005Z,42.90
2022-12-03T21:52:43.584Z,50.90
2022-12-03T21:55:13.497Z,58.10
2022-12-03T21:57:43.818Z,52.10
2022-12-03T22:00:14.621Z,64.90
2022-12-03T22:02:45.198Z,42.60
2022-12-03T22:05:15.449Z,63.10
2022-12-03T22:07:45.812Z,57.10
2022-12-03T22:10:15.963Z,65.10
2022-12-03T22:12:46.374Z,59.70
2022-12-03T22:15:19.170Z,77.80
2022-12-03T22:17:50.587Z,73.20
2022-12-03T22:20:20.638Z,56.40
2022-12-03T22:22:50.973Z,75.90
2022-12-03T22:25:20.915Z,60.40
2022-12-03T22:27:50.975Z,58.00
2022-12-03T22:30:19.876Z,45.80
2022-12-03T22:32:50.165Z,46.70
2022-12-03T22:35:20.136Z,33.60
2022-12-03T22:37:50.016Z,37.60
2022-12-03T22:40:20.067Z,58.50
2022-12-03T22:42:51.279Z,43.30
2022-12-03T22:45:21.611Z,46.60
2022-12-03T22:47:51.658Z,52.90
2022-12-03T22:50:21.655Z,53.50
2022-12-03T22:52:51.880Z,27.00
2022-12-03T22:55:22.020Z,25.50
2022-12-03T22:57:50.918Z,32.00
2022-12-03T23:00:37.352Z,41.80
2022-12-03T23:03:08.093Z,54.30
2022-12-03T23:05:39.739Z,34.70
2022-12-03T23:08:15.291Z,26.40
2022-12-03T23:10:47.961Z,37.30
2022-12-03T23:13:19.011Z,39.20
2022-12-03T23:15:51.334Z,42.70
2022-12-03T23:18:21.680Z,37.70
2022-12-03T23:20:54.893Z,37.20
2022-12-03T23:23:27.498Z,34.90
2022-12-03T23:26:09.807Z,25.50
2022-12-03T23:28:41.617Z,24.90
2022-12-03T23:31:22.117Z,29.50
2022-12-03T23:33:54.509Z,28.90
2022-12-03T23:36:26.311Z,28.10
2022-12-03T23:38:56.805Z,27.90
2022-12-03T23:41:26.916Z,27.10
2022-12-03T23:43:57.352Z,32.70
2022-12-03T23:46:28.188Z,30.30
2022-12-03T23:48:59.364Z,35.20
2022-12-03T23:51:30.521Z,27.30
2022-12-03T23:54:00.499Z,26.90
2022-12-03T23:56:31.575Z,26.00
2022-12-03T23:59:01.577Z,51.40
